createdAt,value
2019-03-28T00:00:49.096Z,15.20
2019-03-28T00:03:18.518Z,14.73
2019-03-28T00:05:47.971Z,14.77
2019-03-28T00:08:17.344Z,16.40
2019-03-28T00:10:46.750Z,15.43
2019-03-28T00:13:16.202Z,16.50
2019-03-28T00:15:45.738Z,15.97
2019-03-28T00:18:15.112Z,16.90
2019-03-28T00:20:44.562Z,15.23
2019-03-28T00:23:28.383Z,15.83
2019-03-28T00:25:57.824Z,15.80
2019-03-28T00:28:27.225Z,16.47
2019-03-28T00:30:56.664Z,16.67
2019-03-28T00:33:26.032Z,17.10
2019-03-28T00:35:55.482Z,16.17
2019-03-28T00:38:25.198Z,17.17
2019-03-28T00:40:55.161Z,16.77
2019-03-28T00:43:25.260Z,16.83
2019-03-28T00:45:54.848Z,16.23
2019-03-28T00:48:24.219Z,16.60
2019-03-28T00:50:53.594Z,16.13
2019-03-28T00:53:22.980Z,17.20
2019-03-28T00:55:52.500Z,16.93
2019-03-28T00:58:21.878Z,16.80
2019-03-28T01:00:51.403Z,17.80
2019-03-28T01:03:20.815Z,17.23
2019-03-28T01:05:50.255Z,16.00
2019-03-28T01:08:19.692Z,17.43
2019-03-28T01:10:49.084Z,18.43
2019-03-28T01:13:18.463Z,17.27
2019-03-28T01:15:47.838Z,17.27
2019-03-28T01:18:17.205Z,17.83
2019-03-28T01:20:46.655Z,17.87
2019-03-28T01:23:16.093Z,18.13
2019-03-28T01:25:45.544Z,17.33
2019-03-28T01:28:14.985Z,17.83
2019-03-28T01:30:44.398Z,17.27
2019-03-28T01:33:13.775Z,17.40
2019-03-28T01:35:43.147Z,17.17
2019-03-28T01:38:12.603Z,17.37
2019-03-28T01:40:42.216Z,15.90
2019-03-28T01:43:11.732Z,17.33
2019-03-28T01:45:41.187Z,16.83
2019-03-28T01:48:10.612Z,17.00
2019-03-28T01:50:40.080Z,15.93
2019-03-28T01:53:09.518Z,16.67
2019-03-28T01:55:39.060Z,16.37
2019-03-28T01:58:08.605Z,16.77
2019-03-28T02:00:38.358Z,16.20
2019-03-28T02:03:08.022Z,17.63
2019-03-28T02:05:37.444Z,17.27
2019-03-28T02:08:06.855Z,17.13
2019-03-28T02:10:36.494Z,17.40
2019-03-28T02:13:05.953Z,17.60
2019-03-28T02:15:35.467Z,17.47
2019-03-28T02:18:04.923Z,17.40
2019-03-28T02:20:34.308Z,18.10
2019-03-28T02:23:03.826Z,18.20
2019-03-28T02:25:33.228Z,18.67
2019-03-28T02:28:02.681Z,18.30
2019-03-28T02:30:33.447Z,18.63
2019-03-28T02:33:03.350Z,18.83
2019-03-28T02:35:32.841Z,18.47
2019-03-28T02:38:02.300Z,17.67
2019-03-28T02:40:31.785Z,18.33
2019-03-28T02:43:01.172Z,17.03
2019-03-28T02:45:30.549Z,17.13
2019-03-28T02:48:00.092Z,18.40
2019-03-28T02:50:29.621Z,18.37
2019-03-28T02:52:59.079Z,18.40
2019-03-28T02:55:28.599Z,17.87
2019-03-28T02:57:58.113Z,19.03
2019-03-28T03:00:27.469Z,18.00
2019-03-28T03:02:57.054Z,19.27
2019-03-28T03:05:26.729Z,18.27
2019-03-28T03:07:56.169Z,18.40
2019-03-28T03:10:25.566Z,18.30
2019-03-28T03:12:55.017Z,17.73
2019-03-28T03:15:24.367Z,18.60
2019-03-28T03:17:53.759Z,17.97
2019-03-28T03:20:23.119Z,18.60
2019-03-28T03:22:52.493Z,18.33
2019-03-28T03:25:21.855Z,18.60
2019-03-28T03:27:58.421Z,18.93
2019-03-28T03:30:22.482Z,18.07
2019-03-28T03:32:52.007Z,17.97
2019-03-28T03:35:21.758Z,17.97
2019-03-28T03:37:51.391Z,18.00
2019-03-28T03:40:20.902Z,16.77
2019-03-28T03:42:50.282Z,16.40
2019-03-28T03:45:19.649Z,16.80
2019-03-28T03:47:49.115Z,16.90
2019-03-28T03:50:27.658Z,16.57
2019-03-28T03:52:57.270Z,16.67
2019-03-28T03:55:26.697Z,15.83
2019-03-28T03:58:13.288Z,16.10
2019-03-28T04:00:34.830Z,16.27
2019-03-28T04:03:04.448Z,15.83
2019-03-28T04:05:33.972Z,16.57
2019-03-28T04:08:03.518Z,16.80
2019-03-28T04:10:33.067Z,16.63
2019-03-28T04:13:02.604Z,17.53
2019-03-28T04:15:32.039Z,17.63
2019-03-28T04:18:01.423Z,17.77
2019-03-28T04:20:31.014Z,17.97
2019-03-28T04:23:00.404Z,17.77
2019-03-28T04:25:29.858Z,17.60
2019-03-28T04:27:59.312Z,18.33
2019-03-28T04:30:28.685Z,18.43
2019-03-28T04:32:58.215Z,17.90
2019-03-28T04:35:27.743Z,17.30
2019-03-28T04:37:57.283Z,17.50
2019-03-28T04:40:26.725Z,16.40
2019-03-28T04:42:56.106Z,16.53
2019-03-28T04:45:25.552Z,18.17
2019-03-28T04:47:55.073Z,18.73
2019-03-28T04:50:24.527Z,18.13
2019-03-28T04:52:53.979Z,18.07
2019-03-28T04:55:23.445Z,18.67
2019-03-28T04:57:52.885Z,18.57
2019-03-28T05:00:22.425Z,18.03
2019-03-28T05:02:51.948Z,18.77
2019-03-28T05:05:21.405Z,19.57
2019-03-28T05:07:53.784Z,19.20
2019-03-28T05:10:23.251Z,18.73
2019-03-28T05:12:52.614Z,18.97
2019-03-28T05:15:22.063Z,19.43
2019-03-28T05:17:51.426Z,18.77
2019-03-28T05:20:20.890Z,19.47
2019-03-28T05:22:50.388Z,19.43
2019-03-28T05:25:19.763Z,20.03
2019-03-28T05:27:49.128Z,19.03
2019-03-28T05:30:18.689Z,19.17
2019-03-28T05:32:48.051Z,18.80
2019-03-28T05:35:17.431Z,19.83
2019-03-28T05:37:46.793Z,18.63
2019-03-28T05:40:16.451Z,18.10
2019-03-28T05:42:45.887Z,18.93
2019-03-28T05:45:15.369Z,18.80
2019-03-28T05:47:44.809Z,18.77
2019-03-28T05:50:14.426Z,19.17
2019-03-28T05:52:43.877Z,18.40
2019-03-28T05:55:13.412Z,17.67
2019-03-28T05:57:42.773Z,19.27
2019-03-28T06:00:12.556Z,18.57
2019-03-28T06:02:41.938Z,18.13
2019-03-28T06:05:11.548Z,17.90
2019-03-28T06:07:40.919Z,17.17
2019-03-28T06:10:10.845Z,17.00
2019-03-28T06:12:40.229Z,17.30
2019-03-28T06:15:10.470Z,16.80
2019-03-28T06:17:39.812Z,17.23
2019-03-28T06:20:10.203Z,16.63
2019-03-28T06:22:39.857Z,18.13
2019-03-28T06:25:09.582Z,17.27
2019-03-28T06:27:39.015Z,16.70
2019-03-28T06:30:09.883Z,17.10
2019-03-28T06:32:43.317Z,16.90
2019-03-28T06:35:10.827Z,16.50
2019-03-28T06:37:40.249Z,16.83
2019-03-28T06:40:09.767Z,17.23
2019-03-28T06:42:39.314Z,17.50
2019-03-28T06:45:08.847Z,15.70
2019-03-28T06:47:38.291Z,16.33
2019-03-28T06:50:08.523Z,14.83
2019-03-28T06:52:38.106Z,15.40
2019-03-28T06:55:07.803Z,15.80
2019-03-28T06:57:37.197Z,15.90
2019-03-28T07:00:08.376Z,15.10
2019-03-28T07:02:37.903Z,16.20
2019-03-28T07:05:07.790Z,15.90
2019-03-28T07:07:37.244Z,15.53
2019-03-28T07:10:07.160Z,16.67
2019-03-28T07:12:36.529Z,16.20
2019-03-28T07:15:06.321Z,16.03
2019-03-28T07:17:35.786Z,16.10
2019-03-28T07:20:08.977Z,17.00
2019-03-28T07:22:38.135Z,16.10
2019-03-28T07:25:07.955Z,17.57
2019-03-28T07:27:37.329Z,17.17
2019-03-28T07:30:07.992Z,16.27
2019-03-28T07:32:37.403Z,16.90
2019-03-28T07:35:06.934Z,16.77
2019-03-28T07:37:36.478Z,17.83
2019-03-28T07:40:07.036Z,16.27
2019-03-28T07:42:36.479Z,16.43
2019-03-28T07:45:06.796Z,16.37
2019-03-28T07:47:36.301Z,16.33
2019-03-28T07:50:06.426Z,16.23
2019-03-28T07:52:35.885Z,17.07
2019-03-28T07:55:06.971Z,15.90
2019-03-28T07:57:36.340Z,15.33
2019-03-28T08:00:07.331Z,15.33
2019-03-28T08:02:36.707Z,14.40
2019-03-28T08:05:07.662Z,15.57
2019-03-28T08:07:44.936Z,15.33
2019-03-28T08:10:08.828Z,14.93
2019-03-28T08:12:38.395Z,13.83
2019-03-28T08:15:08.674Z,14.67
2019-03-28T08:17:38.085Z,14.50
2019-03-28T08:20:07.923Z,12.73
2019-03-28T08:22:37.473Z,12.40
2019-03-28T08:25:11.179Z,12.50
2019-03-28T08:27:38.580Z,12.53
2019-03-28T08:30:18.279Z,12.50
2019-03-28T08:32:40.084Z,11.60
2019-03-28T08:35:10.457Z,11.53
2019-03-28T08:37:40.999Z,12.73
2019-03-28T08:40:11.003Z,10.70
2019-03-28T08:42:40.366Z,10.53
2019-03-28T08:45:10.535Z,10.83
2019-03-28T08:47:39.918Z,9.97
2019-03-28T08:50:09.431Z,10.47
2019-03-28T08:52:38.876Z,9.70
2019-03-28T08:55:10.066Z,10.27
2019-03-28T08:57:39.756Z,9.93
2019-03-28T09:00:11.421Z,11.00
2019-03-28T09:02:40.894Z,9.73
2019-03-28T09:05:10.416Z,10.37
2019-03-28T09:07:40.025Z,9.97
2019-03-28T09:10:09.734Z,9.70
2019-03-28T09:12:39.175Z,9.60
2019-03-28T09:15:09.643Z,9.90
2019-03-28T09:17:39.091Z,10.00
2019-03-28T09:20:09.296Z,9.10
2019-03-28T09:22:39.178Z,9.63
2019-03-28T09:25:08.887Z,9.50
2019-03-28T09:27:38.643Z,9.53
2019-03-28T09:30:08.490Z,9.50
2019-03-28T09:32:38.301Z,9.00
2019-03-28T09:35:09.482Z,9.57
2019-03-28T09:37:38.924Z,9.13
2019-03-28T09:40:08.482Z,9.27
2019-03-28T09:42:37.867Z,9.27
2019-03-28T09:45:07.690Z,9.90
2019-03-28T09:47:37.054Z,8.30
2019-03-28T09:50:06.635Z,8.90
2019-03-28T09:52:35.996Z,8.50
2019-03-28T09:55:05.574Z,6.63
2019-03-28T09:57:34.914Z,7.30
2019-03-28T10:00:04.910Z,7.53
2019-03-28T10:02:34.363Z,7.47
2019-03-28T10:05:03.902Z,7.20
2019-03-28T10:07:33.266Z,6.70
2019-03-28T10:10:03.089Z,7.60
2019-03-28T10:12:34.244Z,7.60
2019-03-28T10:15:03.924Z,7.37
2019-03-28T10:17:33.374Z,6.93
2019-03-28T10:20:02.826Z,6.10
2019-03-28T10:22:32.176Z,5.77
2019-03-28T10:25:01.560Z,6.07
2019-03-28T10:27:30.911Z,6.20
2019-03-28T10:30:00.489Z,7.10
2019-03-28T10:32:30.666Z,6.33
2019-03-28T10:35:00.072Z,6.43
2019-03-28T10:37:29.526Z,6.23
2019-03-28T10:39:58.971Z,6.23
2019-03-28T10:42:28.428Z,6.40
2019-03-28T10:44:57.896Z,6.20
2019-03-28T10:47:27.595Z,6.30
2019-03-28T10:49:57.069Z,6.40
2019-03-28T10:52:26.438Z,6.30
2019-03-28T10:54:55.849Z,5.13
2019-03-28T10:57:29.805Z,5.40
2019-03-28T10:59:56.387Z,5.10
2019-03-28T11:02:28.649Z,4.77
2019-03-28T11:04:56.852Z,4.40
2019-03-28T11:07:26.241Z,4.90
2019-03-28T11:09:55.695Z,5.20
2019-03-28T11:12:25.055Z,4.67
2019-03-28T11:14:54.465Z,4.27
2019-03-28T11:17:24.053Z,4.00
2019-03-28T11:19:55.965Z,3.70
2019-03-28T11:22:24.580Z,3.30
2019-03-28T11:24:53.954Z,3.13
2019-03-28T11:27:23.655Z,3.60
2019-03-28T11:29:53.259Z,3.40
2019-03-28T11:32:22.622Z,3.23
2019-03-28T11:34:52.155Z,3.37
2019-03-28T11:37:26.270Z,4.20
2019-03-28T11:39:52.716Z,4.27
2019-03-28T11:42:22.189Z,4.67
2019-03-28T11:44:51.649Z,4.27
2019-03-28T11:47:22.403Z,5.00
2019-03-28T11:49:52.362Z,5.30
2019-03-28T11:52:21.744Z,5.47
2019-03-28T11:54:51.210Z,5.40
2019-03-28T11:57:20.647Z,5.43
2019-03-28T11:59:50.115Z,5.40
2019-03-28T12:02:20.639Z,5.50
2019-03-28T12:04:50.219Z,5.13
2019-03-28T12:07:19.611Z,4.70
2019-03-28T12:09:49.055Z,4.70
2019-03-28T12:12:18.559Z,5.00
2019-03-28T12:14:47.931Z,5.00
2019-03-28T12:17:17.323Z,5.20
2019-03-28T12:19:46.745Z,5.57
2019-03-28T12:22:16.129Z,5.10
2019-03-28T12:24:45.479Z,5.33
2019-03-28T12:27:14.940Z,5.17
2019-03-28T12:29:46.084Z,4.47
2019-03-28T12:32:15.485Z,5.07
2019-03-28T12:34:44.994Z,5.27
2019-03-28T12:37:14.447Z,5.37
2019-03-28T12:39:43.889Z,6.20
2019-03-28T12:42:13.259Z,4.70
2019-03-28T12:44:56.025Z,4.40
2019-03-28T12:47:13.798Z,5.03
2019-03-28T12:49:43.155Z,5.00
2019-03-28T12:52:12.527Z,5.27
2019-03-28T12:54:44.178Z,5.30
2019-03-28T12:57:14.573Z,5.20
2019-03-28T12:59:44.166Z,5.53
2019-03-28T13:02:26.908Z,5.60
2019-03-28T13:04:44.796Z,5.33
2019-03-28T13:07:14.346Z,5.20
2019-03-28T13:09:43.799Z,5.30
2019-03-28T13:12:13.187Z,5.77
2019-03-28T13:14:42.552Z,5.20
2019-03-28T13:17:11.916Z,5.17
2019-03-28T13:19:41.276Z,5.20
2019-03-28T13:22:10.778Z,5.03
2019-03-28T13:24:40.170Z,5.47
2019-03-28T13:27:09.598Z,5.47
2019-03-28T13:29:38.975Z,4.83
2019-03-28T13:32:08.328Z,5.10
2019-03-28T13:34:37.692Z,4.87
2019-03-28T13:37:07.053Z,4.57
2019-03-28T13:39:36.439Z,4.80
2019-03-28T13:42:05.796Z,4.70
2019-03-28T13:44:35.329Z,4.50
2019-03-28T13:47:04.859Z,4.60
2019-03-28T13:49:34.231Z,5.07
2019-03-28T13:52:03.655Z,4.33
2019-03-28T13:54:33.171Z,5.00
2019-03-28T13:57:02.522Z,4.73
2019-03-28T13:59:35.245Z,4.90
2019-03-28T14:02:03.158Z,4.23
2019-03-28T14:04:32.538Z,4.50
2019-03-28T14:07:01.896Z,4.77
2019-03-28T14:09:31.295Z,3.70
2019-03-28T14:12:00.647Z,4.23
2019-03-28T14:14:30.086Z,4.03
2019-03-28T14:16:59.519Z,4.10
2019-03-28T14:19:28.978Z,4.77
2019-03-28T14:21:58.339Z,4.77
2019-03-28T14:24:27.891Z,5.53
2019-03-28T14:26:57.247Z,6.87
2019-03-28T14:29:29.797Z,6.77
2019-03-28T14:31:59.880Z,7.37
2019-03-28T14:34:28.913Z,6.97
2019-03-28T14:36:58.353Z,6.43
2019-03-28T14:39:27.816Z,6.50
2019-03-28T14:41:57.187Z,6.10
2019-03-28T14:44:26.831Z,5.93
2019-03-28T14:46:56.356Z,6.20
2019-03-28T14:49:25.871Z,6.30
2019-03-28T14:51:55.287Z,6.43
2019-03-28T14:54:24.741Z,6.00
2019-03-28T14:56:55.294Z,6.20
2019-03-28T14:59:32.342Z,6.03
2019-03-28T15:01:56.234Z,6.13
2019-03-28T15:04:25.615Z,5.43
2019-03-28T15:06:54.972Z,5.10
2019-03-28T15:09:24.431Z,4.70
2019-03-28T15:11:53.875Z,4.77
2019-03-28T15:14:23.278Z,4.23
2019-03-28T15:16:52.784Z,5.27
2019-03-28T15:19:22.126Z,4.50
2019-03-28T15:21:51.587Z,4.90
2019-03-28T15:24:21.006Z,5.23
2019-03-28T15:26:50.421Z,4.90
2019-03-28T15:29:19.926Z,5.07
2019-03-28T15:31:49.294Z,5.00
2019-03-28T15:34:18.654Z,4.80
2019-03-28T15:36:48.027Z,5.27
2019-03-28T15:39:17.386Z,4.60
2019-03-28T15:41:46.903Z,4.83
2019-03-28T15:44:16.439Z,5.43
2019-03-28T15:46:45.898Z,5.43
2019-03-28T15:49:15.354Z,5.30
2019-03-28T15:51:44.742Z,5.37
2019-03-28T15:54:14.105Z,5.20
2019-03-28T15:56:43.546Z,5.23
2019-03-28T15:59:12.920Z,4.97
2019-03-28T16:01:42.389Z,5.30
2019-03-28T16:04:11.810Z,5.47
2019-03-28T16:06:41.554Z,6.03
2019-03-28T16:09:11.208Z,5.17
2019-03-28T16:11:40.645Z,5.80
2019-03-28T16:14:10.011Z,5.50
2019-03-28T16:16:39.427Z,5.40
2019-03-28T16:19:08.787Z,5.13
2019-03-28T16:21:38.250Z,5.73
2019-03-28T16:24:07.682Z,5.70
2019-03-28T16:26:37.063Z,5.80
2019-03-28T16:29:07.336Z,5.57
2019-03-28T16:31:37.047Z,5.53
2019-03-28T16:34:07.532Z,5.67
2019-03-28T16:36:37.040Z,5.17
2019-03-28T16:39:07.683Z,5.43
2019-03-28T16:41:37.220Z,5.77
2019-03-28T16:44:06.758Z,6.03
2019-03-28T16:46:36.144Z,6.00
2019-03-28T16:49:05.797Z,7.17
2019-03-28T16:51:35.432Z,8.00
2019-03-28T16:54:04.951Z,6.63
2019-03-28T16:56:34.407Z,5.50
2019-03-28T16:59:03.990Z,5.70
2019-03-28T17:01:34.034Z,6.90
2019-03-28T17:04:03.814Z,5.83
2019-03-28T17:06:33.869Z,5.90
2019-03-28T17:09:05.443Z,5.60
2019-03-28T17:11:35.399Z,5.70
2019-03-28T17:14:05.071Z,5.70
2019-03-28T17:16:34.439Z,5.50
2019-03-28T17:19:03.912Z,7.87
2019-03-28T17:21:33.366Z,11.97
2019-03-28T17:24:02.821Z,13.17
2019-03-28T17:26:33.099Z,14.03
2019-03-28T17:29:02.648Z,42.73
2019-03-28T17:31:32.006Z,23.07
2019-03-28T17:34:01.391Z,15.97
2019-03-28T17:36:30.764Z,8.67
2019-03-28T17:39:00.212Z,6.30
2019-03-28T17:41:29.758Z,6.27
2019-03-28T17:43:59.223Z,5.87
2019-03-28T17:46:28.730Z,5.97
2019-03-28T17:48:58.837Z,5.70
2019-03-28T17:51:29.383Z,6.07
2019-03-28T17:53:58.840Z,6.13
2019-03-28T17:56:28.421Z,6.00
2019-03-28T17:58:58.017Z,6.33
2019-03-28T18:01:27.404Z,5.77
2019-03-28T18:03:57.331Z,7.10
2019-03-28T18:06:26.816Z,7.23
2019-03-28T18:08:56.581Z,6.97
2019-03-28T18:11:26.129Z,7.20
2019-03-28T18:13:55.732Z,8.30
2019-03-28T18:16:25.284Z,7.87
2019-03-28T18:18:54.971Z,8.33
2019-03-28T18:21:24.703Z,8.53
2019-03-28T18:23:54.219Z,7.40
2019-03-28T18:26:25.120Z,7.77
2019-03-28T18:28:56.942Z,6.90
2019-03-28T18:31:26.395Z,7.03
2019-03-28T18:33:55.794Z,8.13
2019-03-28T18:36:25.239Z,7.60
2019-03-28T18:38:54.861Z,7.20
2019-03-28T18:41:24.354Z,7.73
2019-03-28T18:43:53.954Z,7.37
2019-03-28T18:46:23.534Z,8.40
2019-03-28T18:48:53.182Z,7.93
2019-03-28T18:51:22.708Z,8.33
2019-03-28T18:53:52.267Z,6.93
2019-03-28T18:58:52.835Z,7.20
2019-03-28T19:01:22.493Z,7.37
2019-03-28T19:03:52.014Z,8.17
2019-03-28T19:06:21.529Z,7.47
2019-03-28T19:08:51.143Z,7.17
2019-03-28T19:11:20.748Z,7.40
2019-03-28T19:13:50.256Z,7.27
2019-03-28T19:16:21.758Z,7.43
2019-03-28T19:18:51.812Z,8.27
2019-03-28T19:21:21.560Z,10.20
2019-03-28T19:23:51.030Z,10.03
2019-03-28T19:26:20.532Z,9.50
2019-03-28T19:28:52.003Z,8.83
2019-03-28T19:31:43.179Z,10.57
2019-03-28T19:34:13.372Z,7.77
2019-03-28T19:36:45.000Z,8.23
2019-03-28T19:39:19.301Z,8.90
2019-03-28T19:41:48.897Z,8.63
2019-03-28T19:44:18.454Z,9.73
2019-03-28T19:46:48.220Z,9.77
2019-03-28T19:49:17.986Z,9.90
2019-03-28T19:51:47.903Z,8.97
2019-03-28T19:54:17.596Z,9.20
2019-03-28T19:56:47.074Z,10.27
2019-03-28T19:59:16.663Z,9.67
2019-03-28T20:01:46.343Z,9.90
2019-03-28T20:04:16.759Z,9.83
2019-03-28T20:06:46.288Z,8.90
2019-03-28T20:09:16.753Z,9.33
2019-03-28T20:11:47.927Z,9.00
2019-03-28T20:14:17.434Z,9.57
2019-03-28T20:16:46.970Z,9.70
2019-03-28T20:19:18.006Z,10.10
2019-03-28T20:21:47.610Z,11.00
2019-03-28T20:24:17.079Z,10.33
2019-03-28T20:26:46.702Z,9.63
2019-03-28T20:29:16.192Z,9.57
2019-03-28T20:31:45.763Z,10.57
2019-03-28T20:34:15.208Z,10.03
2019-03-28T20:36:53.031Z,10.10
2019-03-28T20:39:43.848Z,9.97
2019-03-28T20:42:13.294Z,10.23
2019-03-28T20:44:42.730Z,10.27
2019-03-28T20:47:12.300Z,10.00
2019-03-28T20:49:41.707Z,9.57
2019-03-28T20:52:13.488Z,9.70
2019-03-28T20:54:42.947Z,10.40
2019-03-28T20:57:12.387Z,10.80
2019-03-28T20:59:41.951Z,10.37
2019-03-28T21:02:11.700Z,11.17
2019-03-28T21:04:41.271Z,10.17
2019-03-28T21:07:10.932Z,10.50
2019-03-28T21:09:40.571Z,10.57
2019-03-28T21:12:10.011Z,11.10
2019-03-28T21:14:39.513Z,10.57
2019-03-28T21:17:08.976Z,11.20
2019-03-28T21:19:38.487Z,11.13
2019-03-28T21:22:07.996Z,12.10
2019-03-28T21:24:37.450Z,12.20
2019-03-28T21:27:07.209Z,12.23
2019-03-28T21:29:48.208Z,12.67
2019-03-28T21:32:07.875Z,12.07
2019-03-28T21:34:37.254Z,12.10
2019-03-28T21:37:06.875Z,12.10
2019-03-28T21:39:36.342Z,11.97
2019-03-28T21:42:07.170Z,11.67
2019-03-28T21:44:36.961Z,12.77
2019-03-28T21:47:06.347Z,12.33
2019-03-28T21:49:35.708Z,12.07
2019-03-28T21:52:07.511Z,12.40
2019-03-28T21:54:36.234Z,11.90
2019-03-28T21:57:05.603Z,12.37
2019-03-28T21:59:34.976Z,12.30
2019-03-28T22:02:04.408Z,11.57
2019-03-28T22:04:34.979Z,14.10
2019-03-28T22:07:04.523Z,15.43
2019-03-28T22:09:34.153Z,15.90
2019-03-28T22:12:03.659Z,15.20
2019-03-28T22:14:33.141Z,12.70
2019-03-28T22:17:02.495Z,12.60
2019-03-28T22:19:32.035Z,13.30
2019-03-28T22:22:02.096Z,13.47
2019-03-28T22:24:31.774Z,12.60
2019-03-28T22:27:01.297Z,12.40
2019-03-28T22:29:30.746Z,12.73
2019-03-28T22:32:00.119Z,11.80
2019-03-28T22:34:29.655Z,12.57
2019-03-28T22:37:00.899Z,12.50
2019-03-28T22:39:30.111Z,12.60
2019-03-28T22:41:59.467Z,12.00
2019-03-28T22:44:28.850Z,13.23
2019-03-28T22:46:58.280Z,12.87
2019-03-28T22:49:27.667Z,13.37
2019-03-28T22:51:57.187Z,12.97
2019-03-28T22:54:26.580Z,12.63
2019-03-28T22:56:56.156Z,12.23
2019-03-28T22:59:26.910Z,12.97
2019-03-28T23:01:56.829Z,12.67
2019-03-28T23:04:26.323Z,12.80
2019-03-28T23:06:55.800Z,12.33
2019-03-28T23:09:25.204Z,12.20
2019-03-28T23:11:54.565Z,13.40
2019-03-28T23:14:23.941Z,12.67
2019-03-28T23:16:53.319Z,12.03
2019-03-28T23:19:22.849Z,12.20
2019-03-28T23:21:52.293Z,13.60
2019-03-28T23:24:21.804Z,13.23
2019-03-28T23:26:51.168Z,13.67
2019-03-28T23:29:20.652Z,13.27
2019-03-28T23:31:50.845Z,13.27
2019-03-28T23:34:20.334Z,12.37
2019-03-28T23:36:49.712Z,12.93
2019-03-28T23:39:19.095Z,12.97
2019-03-28T23:41:48.483Z,13.03
2019-03-28T23:44:17.848Z,12.47
2019-03-28T23:46:47.218Z,12.43
2019-03-28T23:49:16.597Z,12.47
2019-03-28T23:51:46.052Z,12.47
2019-03-28T23:54:15.403Z,13.20
2019-03-28T23:56:44.782Z,13.40
2019-03-28T23:59:14.144Z,11.97
